createdAt,value
2023-03-28T00:01:10.232Z,9.20
2023-03-28T00:03:40.686Z,9.10
2023-03-28T00:06:11.607Z,9.00
2023-03-28T00:08:40.774Z,9.00
2023-03-28T00:11:11.655Z,9.10
2023-03-28T00:13:41.641Z,9.10
2023-03-28T00:16:13.237Z,9.10
2023-03-28T00:18:42.839Z,9.20
2023-03-28T00:21:23.668Z,9.20
2023-03-28T00:23:55.304Z,9.10
2023-03-28T00:26:26.913Z,9.10
2023-03-28T00:28:57.805Z,9.20
2023-03-28T00:31:27.270Z,9.20
2023-03-28T00:33:56.260Z,9.20
2023-03-28T00:36:26.791Z,9.10
2023-03-28T00:38:55.575Z,9.20
2023-03-28T00:41:25.457Z,9.10
2023-03-28T00:43:55.226Z,9.20
2023-03-28T00:46:29.870Z,9.20
2023-03-28T00:49:02.333Z,9.10
2023-03-28T00:51:35.501Z,8.90
2023-03-28T00:54:06.419Z,8.80
2023-03-28T00:56:37.015Z,8.70
2023-03-28T00:59:09.081Z,8.70
2023-03-28T01:01:39.031Z,8.80
2023-03-28T01:04:10.357Z,8.90
2023-03-28T01:06:46.475Z,8.80
2023-03-28T01:09:17.584Z,8.90
2023-03-28T01:11:47.141Z,9.00
2023-03-28T01:14:18.577Z,9.00
2023-03-28T01:16:49.339Z,8.80
2023-03-28T01:19:26.756Z,8.80
2023-03-28T01:22:11.024Z,8.80
2023-03-28T01:25:13.648Z,8.80
2023-03-28T01:27:52.206Z,8.90
2023-03-28T01:30:44.477Z,9.00
2023-03-28T01:33:35.342Z,9.10
2023-03-28T01:36:39.705Z,9.20
2023-03-28T01:39:14.581Z,9.30
2023-03-28T01:41:49.524Z,9.30
2023-03-28T01:44:25.796Z,9.40
2023-03-28T01:47:00.261Z,9.40
2023-03-28T01:49:37.274Z,9.40
2023-03-28T01:52:11.612Z,9.50
2023-03-28T01:54:45.797Z,9.50
2023-03-28T01:57:19.685Z,9.50
2023-03-28T01:59:52.277Z,9.50
2023-03-28T02:02:27.496Z,9.50
2023-03-28T02:04:58.001Z,9.50
2023-03-28T02:07:27.210Z,9.50
2023-03-28T02:09:58.297Z,9.50
2023-03-28T02:12:32.140Z,9.50
2023-03-28T02:15:05.005Z,9.50
2023-03-28T02:17:39.453Z,9.50
2023-03-28T02:20:11.913Z,9.50
2023-03-28T02:22:47.287Z,9.50
2023-03-28T02:25:17.568Z,9.50
2023-03-28T02:27:48.713Z,9.40
2023-03-28T02:30:17.586Z,9.40
2023-03-28T02:32:50.559Z,9.40
2023-03-28T02:35:26.693Z,9.40
2023-03-28T02:38:02.547Z,9.40
2023-03-28T02:40:41.623Z,9.40
2023-03-28T02:43:32.447Z,9.30
2023-03-28T02:46:29.932Z,9.30
2023-03-28T02:49:18.886Z,9.30
2023-03-28T02:51:57.011Z,9.20
2023-03-28T02:54:31.631Z,9.20
2023-03-28T02:57:10.473Z,9.20
2023-03-28T02:59:45.696Z,9.20
2023-03-28T03:02:18.117Z,9.20
2023-03-28T03:04:46.796Z,9.20
2023-03-28T03:07:18.050Z,9.20
2023-03-28T03:09:46.743Z,9.20
2023-03-28T03:12:16.254Z,9.10
2023-03-28T03:14:44.441Z,9.10
2023-03-28T03:17:12.604Z,9.10
2023-03-28T03:19:43.150Z,9.00
2023-03-28T03:22:11.748Z,9.00
2023-03-28T03:24:51.182Z,9.00
2023-03-28T03:27:21.894Z,9.00
2023-03-28T03:29:50.142Z,8.90
2023-03-28T03:32:18.351Z,8.90
2023-03-28T03:34:46.680Z,8.90
2023-03-28T03:37:17.876Z,8.90
2023-03-28T03:39:46.322Z,8.90
2023-03-28T03:42:14.771Z,8.90
2023-03-28T03:44:44.251Z,8.80
2023-03-28T03:47:12.608Z,8.80
2023-03-28T03:49:40.763Z,8.80
2023-03-28T03:52:09.012Z,8.80
2023-03-28T03:54:38.287Z,8.80
2023-03-28T03:57:06.719Z,8.80
2023-03-28T03:59:35.007Z,8.80
2023-03-28T04:02:04.725Z,8.80
2023-03-28T04:04:33.122Z,8.80
2023-03-28T04:07:02.414Z,8.70
2023-03-28T04:09:30.920Z,8.70
2023-03-28T04:11:59.387Z,8.70
2023-03-28T04:14:27.714Z,8.70
2023-03-28T04:16:56.253Z,8.70
2023-03-28T04:19:26.003Z,8.60
2023-03-28T04:21:57.565Z,8.70
2023-03-28T04:24:25.974Z,8.70
2023-03-28T04:26:56.159Z,8.60
2023-03-28T04:29:30.968Z,8.60
2023-03-28T04:31:59.184Z,8.60
2023-03-28T04:34:30.868Z,8.60
2023-03-28T04:37:02.000Z,8.60
2023-03-28T04:39:31.309Z,8.50
2023-03-28T04:42:02.139Z,8.50
2023-03-28T04:44:31.190Z,8.50
2023-03-28T04:46:59.749Z,8.50
2023-03-28T04:49:29.725Z,8.50
2023-03-28T04:51:57.908Z,8.50
2023-03-28T04:54:27.045Z,8.50
2023-03-28T04:56:55.210Z,8.50
2023-03-28T04:59:23.509Z,8.50
2023-03-28T05:01:51.770Z,8.50
2023-03-28T05:04:22.054Z,8.50
2023-03-28T05:06:52.099Z,8.50
2023-03-28T05:09:20.956Z,8.50
2023-03-28T05:11:49.193Z,8.30
2023-03-28T05:14:17.301Z,8.30
2023-03-28T05:16:45.594Z,8.20
2023-03-28T05:19:13.956Z,8.20
2023-03-28T05:21:42.146Z,8.20
2023-03-28T05:24:12.005Z,8.20
2023-03-28T05:26:40.502Z,8.20
2023-03-28T05:29:08.817Z,8.30
2023-03-28T05:31:37.085Z,8.30
2023-03-28T05:34:05.350Z,8.40
2023-03-28T05:36:33.491Z,8.40
2023-03-28T05:39:01.912Z,8.40
2023-03-28T05:41:31.505Z,8.50
2023-03-28T05:43:59.745Z,8.50
2023-03-28T05:46:28.012Z,8.50
2023-03-28T05:48:56.153Z,8.60
2023-03-28T05:51:24.433Z,8.60
2023-03-28T05:53:52.712Z,8.60
2023-03-28T05:56:21.089Z,8.70
2023-03-28T05:58:50.595Z,8.70
2023-03-28T06:01:19.305Z,8.70
2023-03-28T06:03:47.884Z,8.70
2023-03-28T06:06:18.099Z,8.70
2023-03-28T06:08:46.869Z,8.80
2023-03-28T06:11:15.442Z,8.80
2023-03-28T06:13:43.705Z,8.90
2023-03-28T06:16:13.448Z,8.90
2023-03-28T06:18:41.712Z,9.00
2023-03-28T06:21:09.859Z,9.00
2023-03-28T06:23:38.144Z,9.10
2023-03-28T06:26:06.648Z,9.20
2023-03-28T06:28:34.851Z,9.20
2023-03-28T06:31:03.376Z,9.30
2023-03-28T06:33:33.165Z,9.30
2023-03-28T06:36:01.392Z,9.40
2023-03-28T06:38:30.051Z,9.40
2023-03-28T06:40:58.411Z,9.50
2023-03-28T06:43:26.735Z,9.50
2023-03-28T06:45:55.057Z,9.60
2023-03-28T06:48:23.347Z,9.60
2023-03-28T06:50:52.974Z,9.60
2023-03-28T06:53:21.416Z,9.70
2023-03-28T06:55:51.520Z,9.70
2023-03-28T06:58:19.934Z,9.70
2023-03-28T07:00:48.231Z,9.80
2023-03-28T07:03:16.585Z,9.80
2023-03-28T07:05:44.907Z,9.80
2023-03-28T07:08:15.353Z,9.70
2023-03-28T07:10:44.390Z,9.70
2023-03-28T07:13:12.843Z,9.70
2023-03-28T07:15:41.174Z,9.70
2023-03-28T07:18:10.654Z,9.80
2023-03-28T07:20:40.619Z,9.80
2023-03-28T07:23:09.077Z,9.80
2023-03-28T07:25:38.680Z,9.80
2023-03-28T07:28:06.838Z,9.90
2023-03-28T07:30:35.084Z,9.90
2023-03-28T07:33:14.263Z,9.90
2023-03-28T07:35:46.712Z,10.00
2023-03-28T07:38:14.883Z,10.10
2023-03-28T07:40:44.580Z,10.20
2023-03-28T07:43:13.340Z,10.30
2023-03-28T07:45:41.541Z,10.40
2023-03-28T07:48:09.992Z,10.50
2023-03-28T07:50:38.262Z,10.60
2023-03-28T07:53:06.491Z,10.60
2023-03-28T07:55:48.390Z,10.70
2023-03-28T07:58:24.471Z,10.70
2023-03-28T08:00:52.796Z,10.80
2023-03-28T08:03:23.864Z,10.80
2023-03-28T08:05:54.315Z,10.90
2023-03-28T08:08:22.874Z,10.90
2023-03-28T08:10:51.683Z,11.00
2023-03-28T08:13:21.200Z,11.00
2023-03-28T08:15:54.875Z,11.00
2023-03-28T08:18:25.131Z,11.10
2023-03-28T08:20:59.899Z,11.10
2023-03-28T08:23:28.784Z,11.10
2023-03-28T08:26:04.929Z,11.10
2023-03-28T08:28:34.240Z,11.20
2023-03-28T08:31:04.581Z,11.20
2023-03-28T08:33:32.879Z,11.20
2023-03-28T08:36:01.228Z,11.30
2023-03-28T08:38:29.522Z,11.30
2023-03-28T08:41:05.497Z,11.30
2023-03-28T08:44:16.994Z,11.40
2023-03-28T08:46:48.165Z,11.40
2023-03-28T08:49:18.996Z,11.40
2023-03-28T08:51:52.756Z,11.40
2023-03-28T08:54:24.317Z,11.50
2023-03-28T08:56:55.544Z,11.50
2023-03-28T08:59:30.598Z,11.60
2023-03-28T09:02:00.365Z,11.60
2023-03-28T09:04:35.002Z,11.60
2023-03-28T09:07:13.570Z,11.60
2023-03-28T09:09:51.792Z,11.70
2023-03-28T09:12:35.481Z,11.70
2023-03-28T09:15:17.298Z,11.70
2023-03-28T09:17:58.521Z,11.70
2023-03-28T09:20:33.835Z,11.80
2023-03-28T09:23:17.851Z,11.80
2023-03-28T09:25:51.292Z,11.80
2023-03-28T09:28:32.249Z,11.80
2023-03-28T09:31:01.409Z,11.80
2023-03-28T09:33:35.568Z,11.80
2023-03-28T09:36:05.661Z,11.90
2023-03-28T09:38:39.319Z,11.90
2023-03-28T09:41:13.543Z,12.00
2023-03-28T09:43:48.573Z,12.00
2023-03-28T09:46:24.811Z,12.10
2023-03-28T09:48:55.488Z,12.10
2023-03-28T09:51:23.864Z,12.10
2023-03-28T09:53:52.723Z,12.10
2023-03-28T09:56:27.661Z,12.10
2023-03-28T09:58:57.625Z,12.20
2023-03-28T10:01:35.969Z,12.20
2023-03-28T10:04:12.168Z,12.20
2023-03-28T10:06:41.790Z,12.20
2023-03-28T10:09:19.554Z,12.30
2023-03-28T10:11:54.576Z,12.30
2023-03-28T10:14:37.656Z,12.30
2023-03-28T10:17:08.199Z,12.40
2023-03-28T10:19:43.144Z,12.40
2023-03-28T10:22:15.476Z,12.40
2023-03-28T10:24:46.614Z,12.50
2023-03-28T10:27:21.192Z,12.50
2023-03-28T10:29:49.471Z,12.50
2023-03-28T10:32:27.071Z,12.50
2023-03-28T10:35:08.315Z,12.60
2023-03-28T10:37:36.630Z,12.60
2023-03-28T10:40:07.866Z,12.60
2023-03-28T10:42:44.077Z,12.70
2023-03-28T10:45:23.814Z,12.70
2023-03-28T10:47:55.710Z,12.70
2023-03-28T10:50:30.134Z,12.80
2023-03-28T10:53:16.351Z,12.80
2023-03-28T10:55:55.685Z,12.80
2023-03-28T10:58:33.139Z,12.90
2023-03-28T11:01:06.421Z,12.90
2023-03-28T11:03:50.008Z,12.90
2023-03-28T11:06:23.936Z,13.00
2023-03-28T11:09:04.119Z,13.00
2023-03-28T11:11:45.495Z,13.00
2023-03-28T11:14:25.352Z,13.10
2023-03-28T11:17:03.450Z,13.10
2023-03-28T11:19:58.526Z,13.10
2023-03-28T11:22:37.976Z,13.10
2023-03-28T11:25:21.858Z,13.20
2023-03-28T11:27:55.771Z,13.20
2023-03-28T11:30:27.806Z,13.20
2023-03-28T11:33:02.276Z,13.20
2023-03-28T11:35:34.126Z,13.20
2023-03-28T11:38:10.354Z,13.20
2023-03-28T11:40:48.161Z,13.20
2023-03-28T11:43:24.532Z,13.20
2023-03-28T11:45:56.747Z,13.20
2023-03-28T11:48:28.024Z,13.20
2023-03-28T11:51:04.904Z,13.30
2023-03-28T11:53:43.656Z,13.30
2023-03-28T11:56:21.564Z,13.40
2023-03-28T11:58:54.299Z,13.40
2023-03-28T12:01:24.944Z,13.40
2023-03-28T12:04:02.578Z,13.50
2023-03-28T12:06:35.844Z,13.50
2023-03-28T12:09:12.622Z,13.50
2023-03-28T12:11:43.856Z,13.50
2023-03-28T12:14:34.408Z,13.50
2023-03-28T12:17:05.704Z,13.60
2023-03-28T12:19:39.921Z,13.60
2023-03-28T12:22:13.727Z,13.60
2023-03-28T12:24:47.005Z,13.60
2023-03-28T12:27:25.572Z,13.70
2023-03-28T12:29:59.295Z,13.70
2023-03-28T12:32:43.056Z,13.70
2023-03-28T12:35:19.646Z,13.70
2023-03-28T12:38:12.291Z,13.70
2023-03-28T12:40:56.072Z,13.70
2023-03-28T12:43:29.275Z,13.70
2023-03-28T12:46:02.059Z,13.80
2023-03-28T12:48:37.168Z,13.80
2023-03-28T12:51:15.446Z,13.80
2023-03-28T12:54:00.544Z,13.90
2023-03-28T12:56:30.421Z,13.90
2023-03-28T12:58:59.962Z,13.90
2023-03-28T13:01:46.704Z,13.90
2023-03-28T13:04:26.824Z,13.90
2023-03-28T13:07:05.381Z,13.90
2023-03-28T13:09:45.196Z,13.90
2023-03-28T13:12:29.255Z,13.90
2023-03-28T13:15:03.036Z,14.00
2023-03-28T13:17:35.116Z,14.00
2023-03-28T13:20:25.815Z,14.00
2023-03-28T13:22:58.493Z,13.90
2023-03-28T13:25:29.675Z,14.00
2023-03-28T13:28:01.670Z,14.00
2023-03-28T13:30:31.684Z,14.00
2023-03-28T13:33:03.468Z,14.10
2023-03-28T13:35:42.269Z,14.10
2023-03-28T13:38:26.228Z,14.10
2023-03-28T13:40:56.153Z,14.20
2023-03-28T13:43:28.526Z,14.20
2023-03-28T13:45:59.678Z,14.30
2023-03-28T13:48:34.307Z,14.20
2023-03-28T13:51:06.950Z,14.20
2023-03-28T13:53:46.945Z,14.30
2023-03-28T13:56:23.390Z,14.30
2023-03-28T13:58:55.544Z,14.30
2023-03-28T14:01:26.968Z,14.30
2023-03-28T14:03:56.299Z,14.30
2023-03-28T14:06:26.539Z,14.30
2023-03-28T14:08:58.085Z,14.30
2023-03-28T14:11:31.685Z,14.40
2023-03-28T14:14:09.315Z,14.40
2023-03-28T14:16:39.062Z,14.40
2023-03-28T14:19:09.474Z,14.40
2023-03-28T14:21:38.063Z,14.40
2023-03-28T14:24:08.390Z,14.40
2023-03-28T14:26:38.058Z,14.50
2023-03-28T14:29:12.101Z,14.50
2023-03-28T14:31:46.176Z,14.50
2023-03-28T14:34:18.593Z,14.50
2023-03-28T14:37:01.258Z,14.50
2023-03-28T14:39:31.327Z,14.50
2023-03-28T14:42:03.100Z,14.50
2023-03-28T14:44:38.342Z,14.60
2023-03-28T14:47:07.942Z,14.60
2023-03-28T14:49:38.742Z,14.60
2023-03-28T14:52:13.076Z,14.60
2023-03-28T14:54:48.026Z,14.60
2023-03-28T14:57:18.300Z,14.60
2023-03-28T14:59:51.543Z,14.60
2023-03-28T15:02:26.445Z,14.50
2023-03-28T15:04:56.364Z,14.60
2023-03-28T15:07:28.129Z,14.60
2023-03-28T15:10:11.891Z,14.60
2023-03-28T15:12:46.894Z,14.60
2023-03-28T15:15:24.031Z,14.60
2023-03-28T15:17:53.909Z,14.60
2023-03-28T15:20:27.640Z,14.60
2023-03-28T15:22:58.290Z,14.70
2023-03-28T15:25:27.751Z,14.70
2023-03-28T15:27:59.262Z,14.70
2023-03-28T15:30:32.153Z,14.70
2023-03-28T15:33:03.996Z,14.70
2023-03-28T15:35:34.137Z,14.80
2023-03-28T15:38:06.759Z,14.80
2023-03-28T15:40:41.899Z,14.80
2023-03-28T15:43:29.253Z,14.80
2023-03-28T15:46:00.944Z,14.80
2023-03-28T15:48:34.698Z,14.80
2023-03-28T15:51:06.312Z,14.80
2023-03-28T15:53:36.789Z,14.80
2023-03-28T15:56:08.967Z,14.90
2023-03-28T15:58:42.859Z,14.90
2023-03-28T16:01:25.654Z,14.90
2023-03-28T16:04:31.328Z,14.90
2023-03-28T16:07:11.513Z,14.90
2023-03-28T16:09:43.106Z,14.90
2023-03-28T16:12:15.064Z,14.90
2023-03-28T16:14:47.546Z,14.90
2023-03-28T16:17:17.127Z,14.80
2023-03-28T16:19:46.660Z,14.90
2023-03-28T16:22:14.815Z,14.90
2023-03-28T16:24:43.108Z,14.80
2023-03-28T16:27:11.427Z,14.80
2023-03-28T16:29:39.657Z,14.90
2023-03-28T16:32:08.378Z,14.80
2023-03-28T16:34:38.048Z,14.80
2023-03-28T16:37:06.843Z,14.80
2023-03-28T16:39:35.152Z,14.80
2023-03-28T16:42:03.375Z,14.80
2023-03-28T16:44:32.741Z,14.80
2023-03-28T16:47:01.683Z,14.80
2023-03-28T16:49:30.266Z,14.70
2023-03-28T16:51:59.888Z,14.70
2023-03-28T16:54:28.087Z,14.70
2023-03-28T16:56:56.403Z,14.70
2023-03-28T16:59:24.681Z,14.70
2023-03-28T17:01:53.818Z,14.70
2023-03-28T17:04:22.198Z,14.70
2023-03-28T17:06:50.305Z,14.70
2023-03-28T17:09:19.908Z,14.60
2023-03-28T17:11:48.128Z,14.60
2023-03-28T17:14:16.406Z,14.50
2023-03-28T17:16:45.919Z,14.50
2023-03-28T17:19:18.062Z,14.50
2023-03-28T17:21:47.122Z,14.50
2023-03-28T17:24:15.360Z,14.50
2023-03-28T17:26:44.895Z,14.50
2023-03-28T17:29:13.517Z,14.40
2023-03-28T17:31:41.925Z,14.50
2023-03-28T17:34:11.454Z,14.50
2023-03-28T17:36:41.152Z,14.50
2023-03-28T17:39:09.872Z,14.50
2023-03-28T17:41:38.779Z,14.50
2023-03-28T17:44:08.932Z,14.50
2023-03-28T17:46:38.722Z,14.50
2023-03-28T17:49:08.138Z,14.50
2023-03-28T17:51:36.656Z,14.50
2023-03-28T17:54:06.857Z,14.40
2023-03-28T17:56:35.062Z,14.40
2023-03-28T17:59:04.037Z,14.40
2023-03-28T18:01:33.881Z,14.40
2023-03-28T18:04:02.313Z,14.40
2023-03-28T18:06:30.957Z,14.30
2023-03-28T18:08:59.122Z,14.30
2023-03-28T18:11:27.492Z,14.30
2023-03-28T18:13:58.775Z,14.30
2023-03-28T18:16:27.736Z,14.20
2023-03-28T18:18:57.523Z,14.20
2023-03-28T18:21:27.670Z,14.20
2023-03-28T18:23:55.991Z,14.10
2023-03-28T18:26:24.397Z,14.10
2023-03-28T18:28:52.610Z,14.00
2023-03-28T18:31:28.170Z,14.00
2023-03-28T18:33:58.125Z,14.00
2023-03-28T18:36:26.792Z,14.00
2023-03-28T18:38:56.100Z,13.90
2023-03-28T18:41:25.064Z,13.90
2023-03-28T18:43:53.225Z,13.80
2023-03-28T18:46:21.592Z,13.80
2023-03-28T18:48:49.922Z,13.70
2023-03-28T18:51:20.407Z,13.60
2023-03-28T18:53:48.776Z,13.50
2023-03-28T18:56:17.036Z,13.50
2023-03-28T18:58:46.558Z,13.40
2023-03-28T19:01:15.724Z,13.30
2023-03-28T19:03:44.958Z,13.30
2023-03-28T19:06:15.119Z,13.20
2023-03-28T19:08:45.116Z,13.10
2023-03-28T19:11:14.830Z,13.00
2023-03-28T19:13:43.945Z,13.00
2023-03-28T19:16:13.922Z,12.90
2023-03-28T19:18:43.608Z,12.90
2023-03-28T19:21:12.929Z,12.70
2023-03-28T19:23:41.722Z,12.70
2023-03-28T19:26:13.564Z,12.60
2023-03-28T19:28:42.349Z,12.60
2023-03-28T19:31:11.917Z,12.60
2023-03-28T19:33:41.789Z,12.50
2023-03-28T19:36:10.889Z,12.50
2023-03-28T19:38:40.284Z,12.50
2023-03-28T19:41:15.969Z,12.50
2023-03-28T19:43:44.622Z,12.40
2023-03-28T19:46:16.648Z,12.40
2023-03-28T19:48:44.850Z,12.40
2023-03-28T19:51:14.222Z,12.30
2023-03-28T19:53:42.466Z,12.30
2023-03-28T19:56:12.281Z,12.30
2023-03-28T19:58:40.689Z,12.20
2023-03-28T20:01:08.885Z,12.20
2023-03-28T20:03:37.165Z,12.10
2023-03-28T20:06:07.320Z,12.10
2023-03-28T20:08:35.898Z,12.00
2023-03-28T20:11:04.696Z,12.00
2023-03-28T20:13:34.432Z,12.00
2023-03-28T20:16:03.560Z,11.70
2023-03-28T20:18:32.614Z,11.60
2023-03-28T20:21:02.648Z,11.60
2023-03-28T20:23:32.720Z,11.70
2023-03-28T20:26:01.749Z,11.70
2023-03-28T20:28:31.993Z,11.70
2023-03-28T20:31:01.780Z,11.70
2023-03-28T20:33:30.078Z,11.60
2023-03-28T20:35:59.355Z,11.70
2023-03-28T20:38:27.957Z,11.70
2023-03-28T20:40:56.231Z,11.80
2023-03-28T20:43:29.196Z,11.80
2023-03-28T20:46:03.176Z,11.80
2023-03-28T20:48:36.880Z,11.90
2023-03-28T20:51:07.044Z,11.90
2023-03-28T20:53:35.475Z,11.80
2023-03-28T20:56:05.569Z,11.70
2023-03-28T20:58:34.951Z,11.70
2023-03-28T21:01:04.242Z,11.80
2023-03-28T21:03:48.336Z,11.80
2023-03-28T21:06:17.886Z,11.80
2023-03-28T21:08:47.494Z,11.70
2023-03-28T21:11:16.277Z,11.70
2023-03-28T21:13:44.934Z,11.50
2023-03-28T21:16:14.731Z,11.50
2023-03-28T21:18:44.888Z,11.50
2023-03-28T21:21:14.956Z,11.50
2023-03-28T21:23:44.560Z,11.40
2023-03-28T21:26:16.150Z,11.40
2023-03-28T21:28:45.025Z,11.50
2023-03-28T21:31:15.493Z,11.60
2023-03-28T21:33:45.804Z,11.60
2023-03-28T21:36:16.999Z,11.60
2023-03-28T21:38:47.015Z,11.60
2023-03-28T21:41:15.382Z,11.60
2023-03-28T21:43:43.746Z,11.60
2023-03-28T21:46:13.618Z,11.50
2023-03-28T21:48:42.058Z,11.40
2023-03-28T21:51:11.993Z,11.40
2023-03-28T21:53:41.903Z,11.40
2023-03-28T21:56:11.801Z,11.40
2023-03-28T21:58:40.053Z,11.30
2023-03-28T22:01:08.535Z,11.30
2023-03-28T22:03:38.027Z,11.20
2023-03-28T22:06:06.991Z,11.30
2023-03-28T22:08:36.723Z,11.30
2023-03-28T22:11:14.527Z,11.40
2023-03-28T22:13:44.818Z,11.30
2023-03-28T22:16:14.247Z,11.20
2023-03-28T22:18:50.336Z,11.10
2023-03-28T22:21:18.841Z,11.10
2023-03-28T22:23:48.438Z,11.10
2023-03-28T22:26:17.915Z,11.10
2023-03-28T22:28:46.170Z,11.20
2023-03-28T22:31:16.812Z,11.20
2023-03-28T22:33:45.221Z,11.30
2023-03-28T22:36:13.891Z,11.30
2023-03-28T22:38:42.173Z,11.30
2023-03-28T22:41:12.118Z,11.30
2023-03-28T22:43:42.650Z,11.30
2023-03-28T22:46:12.595Z,11.40
2023-03-28T22:48:42.105Z,11.40
2023-03-28T22:51:11.973Z,11.40
2023-03-28T22:53:40.841Z,11.40
2023-03-28T22:56:09.843Z,11.40
2023-03-28T22:58:39.471Z,11.40
2023-03-28T23:01:09.004Z,11.40
2023-03-28T23:03:37.499Z,11.40
2023-03-28T23:06:06.847Z,11.30
2023-03-28T23:08:35.169Z,11.30
2023-03-28T23:11:03.649Z,11.30
2023-03-28T23:13:32.199Z,11.30
2023-03-28T23:16:02.813Z,11.30
2023-03-28T23:18:31.299Z,11.30
2023-03-28T23:20:59.811Z,11.20
2023-03-28T23:23:29.585Z,11.20
2023-03-28T23:25:57.787Z,11.20
2023-03-28T23:28:26.041Z,11.20
2023-03-28T23:30:54.219Z,11.20
2023-03-28T23:33:23.990Z,11.20
2023-03-28T23:35:52.245Z,11.20
2023-03-28T23:38:20.537Z,11.20
2023-03-28T23:40:48.915Z,11.20
2023-03-28T23:43:17.053Z,11.20
2023-03-28T23:45:45.350Z,11.10
2023-03-28T23:48:13.518Z,11.10
2023-03-28T23:50:43.318Z,11.00
2023-03-28T23:53:11.577Z,11.00
2023-03-28T23:55:39.996Z,11.00
2023-03-28T23:58:09.603Z,11.00
